sensor_id;sensor_type;location;lat;lon;timestamp;pressure;altitude;pressure_sealevel;temperature
70819;BMP280;58439;51.046;13.692;2023-04-01T00:02:20;98211.63;;;9.94
70819;BMP280;58439;51.046;13.692;2023-04-01T00:04:58;98197.56;;;9.95
70819;BMP280;58439;51.046;13.692;2023-04-01T00:07:28;98201.38;;;10.04
70819;BMP280;58439;51.046;13.692;2023-04-01T00:09:56;98196.94;;;10.04
70819;BMP280;58439;51.046;13.692;2023-04-01T00:12:23;98194.25;;;10.16
70819;BMP280;58439;51.046;13.692;2023-04-01T00:14:54;98201.56;;;10.14
70819;BMP280;58439;51.046;13.692;2023-04-01T00:17:22;98200.84;;;10.18
70819;BMP280;58439;51.046;13.692;2023-04-01T00:19:55;98199.22;;;10.29
70819;BMP280;58439;51.046;13.692;2023-04-01T00:22:27;98201.31;;;10.44
70819;BMP280;58439;51.046;13.692;2023-04-01T00:24:54;98202.69;;;10.52
70819;BMP280;58439;51.046;13.692;2023-04-01T00:27:21;98198.59;;;10.56
70819;BMP280;58439;51.046;13.692;2023-04-01T00:29:49;98200.19;;;10.57
70819;BMP280;58439;51.046;13.692;2023-04-01T00:32:16;98196.53;;;10.58
70819;BMP280;58439;51.046;13.692;2023-04-01T00:34:43;98198.84;;;10.54
70819;BMP280;58439;51.046;13.692;2023-04-01T00:37:11;98214.13;;;10.45
70819;BMP280;58439;51.046;13.692;2023-04-01T00:39:38;98205.94;;;10.42
70819;BMP280;58439;51.046;13.692;2023-04-01T00:42:06;98204.91;;;10.26
70819;BMP280;58439;51.046;13.692;2023-04-01T00:44:36;98200.59;;;10.03
70819;BMP280;58439;51.046;13.692;2023-04-01T00:47:04;98208.78;;;9.95
70819;BMP280;58439;51.046;13.692;2023-04-01T00:49:46;98204.88;;;9.81
70819;BMP280;58439;51.046;13.692;2023-04-01T00:52:17;98209.00;;;9.65
70819;BMP280;58439;51.046;13.692;2023-04-01T00:54:56;98202.09;;;9.59
70819;BMP280;58439;51.046;13.692;2023-04-01T00:57:31;98203.13;;;9.58
70819;BMP280;58439;51.046;13.692;2023-04-01T01:00:06;98199.72;;;9.57
70819;BMP280;58439;51.046;13.692;2023-04-01T01:02:36;98204.69;;;9.59
70819;BMP280;58439;51.046;13.692;2023-04-01T01:05:05;98201.06;;;9.60
70819;BMP280;58439;51.046;13.692;2023-04-01T01:10:20;98207.25;;;9.71
70819;BMP280;58439;51.046;13.692;2023-04-01T01:16:06;98201.66;;;9.90
70819;BMP280;58439;51.046;13.692;2023-04-01T01:18:53;98198.88;;;10.09
70819;BMP280;58439;51.046;13.692;2023-04-01T01:22:01;98203.13;;;10.15
70819;BMP280;58439;51.046;13.692;2023-04-01T01:27:37;98197.91;;;10.15
70819;BMP280;58439;51.046;13.692;2023-04-01T01:30:32;98211.81;;;10.04
70819;BMP280;58439;51.046;13.692;2023-04-01T01:36:05;98205.75;;;9.86
70819;BMP280;58439;51.046;13.692;2023-04-01T01:38:35;98201.34;;;9.87
70819;BMP280;58439;51.046;13.692;2023-04-01T01:41:08;98195.09;;;9.88
70819;BMP280;58439;51.046;13.692;2023-04-01T01:43:43;98195.19;;;9.93
70819;BMP280;58439;51.046;13.692;2023-04-01T01:46:22;98205.47;;;10.00
70819;BMP280;58439;51.046;13.692;2023-04-01T01:48:55;98201.94;;;10.06
70819;BMP280;58439;51.046;13.692;2023-04-01T01:51:26;98196.00;;;10.10
70819;BMP280;58439;51.046;13.692;2023-04-01T01:53:55;98207.81;;;10.13
70819;BMP280;58439;51.046;13.692;2023-04-01T01:56:25;98203.22;;;10.20
70819;BMP280;58439;51.046;13.692;2023-04-01T01:59:03;98201.19;;;10.22
70819;BMP280;58439;51.046;13.692;2023-04-01T02:01:39;98193.00;;;10.18
70819;BMP280;58439;51.046;13.692;2023-04-01T02:04:13;98199.03;;;10.19
70819;BMP280;58439;51.046;13.692;2023-04-01T02:07:04;98205.38;;;10.23
70819;BMP280;58439;51.046;13.692;2023-04-01T02:09:34;98202.63;;;10.30
70819;BMP280;58439;51.046;13.692;2023-04-01T02:12:12;98194.06;;;10.34
70819;BMP280;58439;51.046;13.692;2023-04-01T02:15:04;98188.84;;;10.34
70819;BMP280;58439;51.046;13.692;2023-04-01T02:17:37;98198.84;;;10.37
70819;BMP280;58439;51.046;13.692;2023-04-01T02:20:20;98197.81;;;10.38
70819;BMP280;58439;51.046;13.692;2023-04-01T02:22:55;98201.44;;;10.37
70819;BMP280;58439;51.046;13.692;2023-04-01T02:25:33;98201.66;;;10.36
70819;BMP280;58439;51.046;13.692;2023-04-01T02:28:04;98201.91;;;10.34
70819;BMP280;58439;51.046;13.692;2023-04-01T02:30:36;98203.09;;;10.43
70819;BMP280;58439;51.046;13.692;2023-04-01T02:33:06;98204.28;;;10.36
70819;BMP280;58439;51.046;13.692;2023-04-01T02:35:36;98208.94;;;10.34
70819;BMP280;58439;51.046;13.692;2023-04-01T02:38:05;98213.16;;;10.35
70819;BMP280;58439;51.046;13.692;2023-04-01T02:40:51;98206.69;;;10.37
70819;BMP280;58439;51.046;13.692;2023-04-01T02:43:23;98199.06;;;10.36
70819;BMP280;58439;51.046;13.692;2023-04-01T02:45:50;98216.56;;;10.35
70819;BMP280;58439;51.046;13.692;2023-04-01T02:48:17;98208.31;;;10.27
70819;BMP280;58439;51.046;13.692;2023-04-01T02:50:48;98212.16;;;10.24
70819;BMP280;58439;51.046;13.692;2023-04-01T02:53:16;98215.34;;;10.26
70819;BMP280;58439;51.046;13.692;2023-04-01T02:55:43;98221.06;;;10.23
70819;BMP280;58439;51.046;13.692;2023-04-01T02:58:12;98220.97;;;10.18
70819;BMP280;58439;51.046;13.692;2023-04-01T03:00:39;98221.69;;;10.13
70819;BMP280;58439;51.046;13.692;2023-04-01T03:03:06;98226.97;;;10.18
70819;BMP280;58439;51.046;13.692;2023-04-01T03:05:34;98229.94;;;10.22
70819;BMP280;58439;51.046;13.692;2023-04-01T03:08:02;98228.78;;;10.18
70819;BMP280;58439;51.046;13.692;2023-04-01T03:10:30;98229.81;;;10.17
70819;BMP280;58439;51.046;13.692;2023-04-01T03:12:57;98226.63;;;10.15
70819;BMP280;58439;51.046;13.692;2023-04-01T03:19:20;98226.56;;;10.10
70819;BMP280;58439;51.046;13.692;2023-04-01T03:25:28;98226.56;;;10.10
70819;BMP280;58439;51.046;13.692;2023-04-01T03:28:24;98222.84;;;10.06
70819;BMP280;58439;51.046;13.692;2023-04-01T03:31:17;98228.28;;;10.04
70819;BMP280;58439;51.046;13.692;2023-04-01T03:34:01;98240.00;;;10.02
70819;BMP280;58439;51.046;13.692;2023-04-01T03:36:29;98232.09;;;9.97
70819;BMP280;58439;51.046;13.692;2023-04-01T03:38:56;98235.59;;;9.90
70819;BMP280;58439;51.046;13.692;2023-04-01T03:41:34;98231.25;;;9.96
70819;BMP280;58439;51.046;13.692;2023-04-01T03:44:02;98237.72;;;10.05
70819;BMP280;58439;51.046;13.692;2023-04-01T03:46:30;98238.41;;;10.01
70819;BMP280;58439;51.046;13.692;2023-04-01T03:48:57;98249.53;;;9.96
70819;BMP280;58439;51.046;13.692;2023-04-01T03:51:24;98246.69;;;9.98
70819;BMP280;58439;51.046;13.692;2023-04-01T03:53:53;98245.91;;;9.97
70819;BMP280;58439;51.046;13.692;2023-04-01T03:56:20;98242.81;;;10.00
70819;BMP280;58439;51.046;13.692;2023-04-01T03:58:47;98250.06;;;10.10
70819;BMP280;58439;51.046;13.692;2023-04-01T04:01:20;98248.59;;;10.14
70819;BMP280;58439;51.046;13.692;2023-04-01T04:03:50;98259.13;;;10.07
70819;BMP280;58439;51.046;13.692;2023-04-01T04:06:19;98253.59;;;10.04
70819;BMP280;58439;51.046;13.692;2023-04-01T04:08:47;98250.44;;;10.02
70819;BMP280;58439;51.046;13.692;2023-04-01T04:11:16;98258.03;;;10.03
70819;BMP280;58439;51.046;13.692;2023-04-01T04:13:44;98251.22;;;10.02
70819;BMP280;58439;51.046;13.692;2023-04-01T04:16:11;98255.75;;;10.07
70819;BMP280;58439;51.046;13.692;2023-04-01T04:18:43;98256.88;;;10.11
70819;BMP280;58439;51.046;13.692;2023-04-01T04:21:15;98253.03;;;10.13
70819;BMP280;58439;51.046;13.692;2023-04-01T04:23:43;98264.56;;;10.17
70819;BMP280;58439;51.046;13.692;2023-04-01T04:26:15;98266.75;;;10.21
70819;BMP280;58439;51.046;13.692;2023-04-01T04:28:47;98264.69;;;10.23
70819;BMP280;58439;51.046;13.692;2023-04-01T04:31:22;98270.13;;;10.21
70819;BMP280;58439;51.046;13.692;2023-04-01T04:33:51;98275.69;;;10.25
70819;BMP280;58439;51.046;13.692;2023-04-01T04:36:21;98266.13;;;10.30
70819;BMP280;58439;51.046;13.692;2023-04-01T04:39:03;98276.56;;;10.30
70819;BMP280;58439;51.046;13.692;2023-04-01T04:41:39;98280.78;;;10.31
70819;BMP280;58439;51.046;13.692;2023-04-01T04:44:38;98277.38;;;10.31
70819;BMP280;58439;51.046;13.692;2023-04-01T04:47:06;98277.13;;;10.32
70819;BMP280;58439;51.046;13.692;2023-04-01T04:49:34;98282.34;;;10.32
70819;BMP280;58439;51.046;13.692;2023-04-01T04:52:05;98275.31;;;10.33
70819;BMP280;58439;51.046;13.692;2023-04-01T04:54:33;98283.47;;;10.36
70819;BMP280;58439;51.046;13.692;2023-04-01T04:57:02;98282.44;;;10.37
70819;BMP280;58439;51.046;13.692;2023-04-01T04:59:38;98291.53;;;10.35
70819;BMP280;58439;51.046;13.692;2023-04-01T05:02:15;98285.28;;;10.36
70819;BMP280;58439;51.046;13.692;2023-04-01T05:04:42;98291.09;;;10.38
70819;BMP280;58439;51.046;13.692;2023-04-01T05:07:11;98288.91;;;10.35
70819;BMP280;58439;51.046;13.692;2023-04-01T05:09:38;98288.22;;;10.39
70819;BMP280;58439;51.046;13.692;2023-04-01T05:12:05;98287.75;;;10.42
70819;BMP280;58439;51.046;13.692;2023-04-01T05:14:52;98299.00;;;10.43
70819;BMP280;58439;51.046;13.692;2023-04-01T05:17:23;98298.69;;;10.39
70819;BMP280;58439;51.046;13.692;2023-04-01T05:19:50;98295.53;;;10.37
70819;BMP280;58439;51.046;13.692;2023-04-01T05:22:17;98295.53;;;10.37
70819;BMP280;58439;51.046;13.692;2023-04-01T05:24:45;98299.94;;;10.37
70819;BMP280;58439;51.046;13.692;2023-04-01T05:27:38;98311.19;;;10.37
70819;BMP280;58439;51.046;13.692;2023-04-01T05:30:35;98310.63;;;10.35
70819;BMP280;58439;51.046;13.692;2023-04-01T05:33:51;98314.50;;;10.33
70819;BMP280;58439;51.046;13.692;2023-04-01T05:36:59;98312.34;;;10.30
70819;BMP280;58439;51.046;13.692;2023-04-01T05:39:27;98309.81;;;10.35
70819;BMP280;58439;51.046;13.692;2023-04-01T05:41:54;98318.00;;;10.38
70819;BMP280;58439;51.046;13.692;2023-04-01T05:44:21;98336.63;;;10.42
70819;BMP280;58439;51.046;13.692;2023-04-01T05:47:11;98326.41;;;10.40
70819;BMP280;58439;51.046;13.692;2023-04-01T05:49:38;98318.44;;;10.35
70819;BMP280;58439;51.046;13.692;2023-04-01T05:52:05;98323.13;;;10.33
70819;BMP280;58439;51.046;13.692;2023-04-01T05:54:35;98323.13;;;10.33
70819;BMP280;58439;51.046;13.692;2023-04-01T05:57:02;98326.09;;;10.25
70819;BMP280;58439;51.046;13.692;2023-04-01T05:59:33;98322.09;;;10.06
70819;BMP280;58439;51.046;13.692;2023-04-01T06:02:02;98322.91;;;9.95
70819;BMP280;58439;51.046;13.692;2023-04-01T06:04:38;98323.13;;;9.81
70819;BMP280;58439;51.046;13.692;2023-04-01T06:07:12;98321.44;;;9.87
70819;BMP280;58439;51.046;13.692;2023-04-01T06:09:40;98323.56;;;9.90
70819;BMP280;58439;51.046;13.692;2023-04-01T06:24:43;98340.59;;;10.90
70819;BMP280;58439;51.046;13.692;2023-04-01T06:33:37;98324.13;;;11.40
70819;BMP280;58439;51.046;13.692;2023-04-01T06:36:33;98343.63;;;11.49
70819;BMP280;58439;51.046;13.692;2023-04-01T06:39:21;98333.53;;;11.57
70819;BMP280;58439;51.046;13.692;2023-04-01T06:42:23;98334.22;;;11.70
70819;BMP280;58439;51.046;13.692;2023-04-01T06:52:10;98336.69;;;11.98
70819;BMP280;58439;51.046;13.692;2023-04-01T06:58:38;98342.03;;;12.08
70819;BMP280;58439;51.046;13.692;2023-04-01T07:04:50;98340.84;;;12.21
70819;BMP280;58439;51.046;13.692;2023-04-01T07:07:45;98346.97;;;12.27
70819;BMP280;58439;51.046;13.692;2023-04-01T07:10:35;98343.06;;;12.29
70819;BMP280;58439;51.046;13.692;2023-04-01T07:13:32;98347.78;;;12.32
70819;BMP280;58439;51.046;13.692;2023-04-01T07:16:32;98354.34;;;12.30
70819;BMP280;58439;51.046;13.692;2023-04-01T07:19:29;98355.44;;;12.34
70819;BMP280;58439;51.046;13.692;2023-04-01T07:22:35;98366.47;;;12.36
70819;BMP280;58439;51.046;13.692;2023-04-01T07:25:16;98363.34;;;12.39
70819;BMP280;58439;51.046;13.692;2023-04-01T07:27:52;98366.03;;;12.44
70819;BMP280;58439;51.046;13.692;2023-04-01T07:30:23;98363.50;;;12.54
70819;BMP280;58439;51.046;13.692;2023-04-01T07:33:26;98366.94;;;12.60
70819;BMP280;58439;51.046;13.692;2023-04-01T07:36:14;98362.84;;;12.69
70819;BMP280;58439;51.046;13.692;2023-04-01T07:39:51;98379.91;;;12.66
70819;BMP280;58439;51.046;13.692;2023-04-01T07:49:04;98370.25;;;12.72
70819;BMP280;58439;51.046;13.692;2023-04-01T07:54:59;98374.81;;;12.60
70819;BMP280;58439;51.046;13.692;2023-04-01T08:00:39;98376.13;;;12.84
70819;BMP280;58439;51.046;13.692;2023-04-01T08:04:12;98396.72;;;12.97
70819;BMP280;58439;51.046;13.692;2023-04-01T08:07:15;98379.66;;;13.00
70819;BMP280;58439;51.046;13.692;2023-04-01T08:10:20;98389.31;;;12.94
70819;BMP280;58439;51.046;13.692;2023-04-01T08:22:27;98388.81;;;13.29
70819;BMP280;58439;51.046;13.692;2023-04-01T08:25:27;98389.97;;;13.44
70819;BMP280;58439;51.046;13.692;2023-04-01T08:28:30;98395.00;;;13.45
70819;BMP280;58439;51.046;13.692;2023-04-01T08:34:42;98390.91;;;13.65
70819;BMP280;58439;51.046;13.692;2023-04-01T08:46:10;98408.69;;;14.10
70819;BMP280;58439;51.046;13.692;2023-04-01T08:57:52;98407.66;;;14.06
70819;BMP280;58439;51.046;13.692;2023-04-01T09:06:53;98394.91;;;13.77
70819;BMP280;58439;51.046;13.692;2023-04-01T09:31:04;98416.00;;;14.86
70819;BMP280;58439;51.046;13.692;2023-04-01T09:41:29;98421.53;;;14.99
70819;BMP280;58439;51.046;13.692;2023-04-01T09:56:19;98432.28;;;14.62
70819;BMP280;58439;51.046;13.692;2023-04-01T10:16:21;98430.59;;;14.15
70819;BMP280;58439;51.046;13.692;2023-04-01T10:29:09;98436.97;;;13.82
70819;BMP280;58439;51.046;13.692;2023-04-01T10:35:29;98448.97;;;13.68
70819;BMP280;58439;51.046;13.692;2023-04-01T10:43:49;98442.34;;;14.03
70819;BMP280;58439;51.046;13.692;2023-04-01T11:29:40;98440.19;;;17.12
70819;BMP280;58439;51.046;13.692;2023-04-01T11:33:22;98456.44;;;16.56
70819;BMP280;58439;51.046;13.692;2023-04-01T11:41:22;98454.94;;;14.01
70819;BMP280;58439;51.046;13.692;2023-04-01T11:45:26;98455.09;;;14.46
70819;BMP280;58439;51.046;13.692;2023-04-01T11:56:45;98454.38;;;17.21
70819;BMP280;58439;51.046;13.692;2023-04-01T12:00:02;98458.38;;;17.42
70819;BMP280;58439;51.046;13.692;2023-04-01T12:07:06;98447.22;;;16.93
70819;BMP280;58439;51.046;13.692;2023-04-01T12:10:39;98455.84;;;16.69
70819;BMP280;58439;51.046;13.692;2023-04-01T12:20:31;98464.13;;;15.88
70819;BMP280;58439;51.046;13.692;2023-04-01T12:31:25;98456.81;;;15.44
70819;BMP280;58439;51.046;13.692;2023-04-01T12:39:11;98460.38;;;16.04
70819;BMP280;58439;51.046;13.692;2023-04-01T13:01:24;98457.88;;;18.68
70819;BMP280;58439;51.046;13.692;2023-04-01T13:08:53;98457.97;;;18.63
70819;BMP280;58439;51.046;13.692;2023-04-01T13:13:00;98456.94;;;20.87
70819;BMP280;58439;51.046;13.692;2023-04-01T13:30:07;98482.91;;;16.85
70819;BMP280;58439;51.046;13.692;2023-04-01T13:45:15;98481.75;;;19.47
70819;BMP280;58439;51.046;13.692;2023-04-01T13:49:02;98487.00;;;19.20
70819;BMP280;58439;51.046;13.692;2023-04-01T13:53:05;98480.25;;;19.27
70819;BMP280;58439;51.046;13.692;2023-04-01T13:59:51;98477.03;;;19.99
70819;BMP280;58439;51.046;13.692;2023-04-01T14:03:48;98477.09;;;21.42
70819;BMP280;58439;51.046;13.692;2023-04-01T14:10:05;98488.81;;;24.56
70819;BMP280;58439;51.046;13.692;2023-04-01T14:22:34;98494.44;;;22.74
70819;BMP280;58439;51.046;13.692;2023-04-01T14:31:44;98497.78;;;19.70
70819;BMP280;58439;51.046;13.692;2023-04-01T14:34:53;98507.50;;;18.82
70819;BMP280;58439;51.046;13.692;2023-04-01T14:41:58;98513.16;;;17.95
70819;BMP280;58439;51.046;13.692;2023-04-01T14:48:33;98528.22;;;19.45
70819;BMP280;58439;51.046;13.692;2023-04-01T14:51:20;98521.03;;;20.14
70819;BMP280;58439;51.046;13.692;2023-04-01T14:54:04;98518.81;;;20.07
70819;BMP280;58439;51.046;13.692;2023-04-01T14:56:51;98526.34;;;19.59
70819;BMP280;58439;51.046;13.692;2023-04-01T14:59:49;98523.53;;;19.23
70819;BMP280;58439;51.046;13.692;2023-04-01T15:02:38;98524.97;;;18.83
70819;BMP280;58439;51.046;13.692;2023-04-01T15:05:49;98519.84;;;17.87
70819;BMP280;58439;51.046;13.692;2023-04-01T15:25:39;98544.72;;;16.19
70819;BMP280;58439;51.046;13.692;2023-04-01T15:32:13;98545.28;;;16.06
70819;BMP280;58439;51.046;13.692;2023-04-01T15:45:02;98552.69;;;15.07
70819;BMP280;58439;51.046;13.692;2023-04-01T15:48:06;98566.41;;;15.15
70819;BMP280;58439;51.046;13.692;2023-04-01T15:54:45;98561.94;;;15.35
70819;BMP280;58439;51.046;13.692;2023-04-01T16:00:29;98573.75;;;15.13
70819;BMP280;58439;51.046;13.692;2023-04-01T16:04:07;98570.06;;;15.14
70819;BMP280;58439;51.046;13.692;2023-04-01T16:10:57;98581.09;;;14.95
70819;BMP280;58439;51.046;13.692;2023-04-01T16:17:00;98583.69;;;14.85
70819;BMP280;58439;51.046;13.692;2023-04-01T16:19:52;98583.38;;;14.71
70819;BMP280;58439;51.046;13.692;2023-04-01T16:22:54;98581.72;;;14.55
70819;BMP280;58439;51.046;13.692;2023-04-01T16:25:32;98591.41;;;14.50
70819;BMP280;58439;51.046;13.692;2023-04-01T16:28:24;98592.94;;;14.40
70819;BMP280;58439;51.046;13.692;2023-04-01T16:31:04;98591.28;;;14.24
70819;BMP280;58439;51.046;13.692;2023-04-01T16:33:52;98599.13;;;14.19
70819;BMP280;58439;51.046;13.692;2023-04-01T16:36:42;98608.50;;;14.10
70819;BMP280;58439;51.046;13.692;2023-04-01T16:39:34;98612.38;;;13.97
70819;BMP280;58439;51.046;13.692;2023-04-01T16:42:52;98611.53;;;13.92
70819;BMP280;58439;51.046;13.692;2023-04-01T16:45:42;98614.91;;;13.87
70819;BMP280;58439;51.046;13.692;2023-04-01T16:48:17;98615.31;;;13.74
70819;BMP280;58439;51.046;13.692;2023-04-01T16:51:11;98622.69;;;13.72
70819;BMP280;58439;51.046;13.692;2023-04-01T16:53:52;98629.22;;;13.69
70819;BMP280;58439;51.046;13.692;2023-04-01T16:56:38;98630.41;;;13.56
70819;BMP280;58439;51.046;13.692;2023-04-01T16:59:22;98639.72;;;13.42
70819;BMP280;58439;51.046;13.692;2023-04-01T17:02:14;98640.31;;;13.27
70819;BMP280;58439;51.046;13.692;2023-04-01T17:04:48;98648.09;;;13.17
70819;BMP280;58439;51.046;13.692;2023-04-01T17:08:01;98647.94;;;13.07
70819;BMP280;58439;51.046;13.692;2023-04-01T17:13:46;98663.25;;;12.71
70819;BMP280;58439;51.046;13.692;2023-04-01T17:17:12;98665.56;;;12.51
70819;BMP280;58439;51.046;13.692;2023-04-01T17:22:49;98674.78;;;12.37
70819;BMP280;58439;51.046;13.692;2023-04-01T17:26:02;98671.59;;;12.35
70819;BMP280;58439;51.046;13.692;2023-04-01T17:34:46;98681.06;;;12.36
70819;BMP280;58439;51.046;13.692;2023-04-01T17:38:06;98678.88;;;12.33
70819;BMP280;58439;51.046;13.692;2023-04-01T17:43:52;98687.09;;;12.36
70819;BMP280;58439;51.046;13.692;2023-04-01T17:59:11;98701.78;;;12.21
70819;BMP280;58439;51.046;13.692;2023-04-01T18:16:36;98715.22;;;12.24
70819;BMP280;58439;51.046;13.692;2023-04-01T18:30:07;98727.97;;;12.21
70819;BMP280;58439;51.046;13.692;2023-04-01T20:59:15;98893.84;;;11.34
70819;BMP280;58439;51.046;13.692;2023-04-01T21:32:10;98938.44;;;10.97
70819;BMP280;58439;51.046;13.692;2023-04-01T22:17:35;98987.88;;;10.32
70819;BMP280;58439;51.046;13.692;2023-04-01T22:20:28;98986.13;;;10.26
70819;BMP280;58439;51.046;13.692;2023-04-01T22:23:29;98992.81;;;10.22
70819;BMP280;58439;51.046;13.692;2023-04-01T22:26:23;98993.63;;;10.16
70819;BMP280;58439;51.046;13.692;2023-04-01T22:32:07;98996.13;;;10.11
70819;BMP280;58439;51.046;13.692;2023-04-01T22:41:42;99009.81;;;10.06
70819;BMP280;58439;51.046;13.692;2023-04-01T22:44:46;99025.53;;;10.00
70819;BMP280;58439;51.046;13.692;2023-04-01T22:56:56;99031.88;;;9.85
70819;BMP280;58439;51.046;13.692;2023-04-01T22:59:58;99024.09;;;9.79
70819;BMP280;58439;51.046;13.692;2023-04-01T23:02:38;99040.78;;;9.78
70819;BMP280;58439;51.046;13.692;2023-04-01T23:05:13;99040.56;;;9.73
70819;BMP280;58439;51.046;13.692;2023-04-01T23:11:59;99054.56;;;9.53
70819;BMP280;58439;51.046;13.692;2023-04-01T23:15:02;99049.97;;;9.49
70819;BMP280;58439;51.046;13.692;2023-04-01T23:19:26;99059.59;;;9.48
70819;BMP280;58439;51.046;13.692;2023-04-01T23:22:54;99068.03;;;9.44
70819;BMP280;58439;51.046;13.692;2023-04-01T23:25:55;99074.50;;;9.34
70819;BMP280;58439;51.046;13.692;2023-04-01T23:28:51;99082.16;;;9.29
70819;BMP280;58439;51.046;13.692;2023-04-01T23:32:04;99083.81;;;9.24
70819;BMP280;58439;51.046;13.692;2023-04-01T23:35:22;99092.22;;;9.19
70819;BMP280;58439;51.046;13.692;2023-04-01T23:37:49;99095.47;;;9.15
70819;BMP280;58439;51.046;13.692;2023-04-01T23:40:20;99105.69;;;9.09
70819;BMP280;58439;51.046;13.692;2023-04-01T23:42:47;99092.31;;;9.06
70819;BMP280;58439;51.046;13.692;2023-04-01T23:45:17;99114.34;;;9.03
70819;BMP280;58439;51.046;13.692;2023-04-01T23:47:51;99105.13;;;9.01
70819;BMP280;58439;51.046;13.692;2023-04-01T23:50:26;99111.53;;;8.98
70819;BMP280;58439;51.046;13.692;2023-04-01T23:53:13;99125.38;;;8.99
70819;BMP280;58439;51.046;13.692;2023-04-01T23:55:43;99127.19;;;8.98
70819;BMP280;58439;51.046;13.692;2023-04-01T23:58:46;99126.00;;;8.94
